Time;durP1;ratioP1;P1;durP2;ratioP2;P2;SDS_P1;SDS_P2;PMS_P1;PMS_P2;Temp;Humidity;BMP_temperature;BMP_pressure;BME280_temperature;BME280_humidity;BME280_pressure;Samples;Min_cycle;Max_cycle;Signal;HPM_P1;HPM_P2
2022/06/19 00:02:15;;;;;;;3.80;2.30;;;26.50;51.90;;;;;;4918213;29;20039;-49
2022/06/19 00:04:48;;;;;;;3.17;2.03;;;26.40;51.70;;;;;;4911668;29;20519;-45
2022/06/19 00:07:17;;;;;;;2.80;1.98;;;26.30;51.70;;;;;;4914213;29;20512;-49
2022/06/19 00:09:48;;;;;;;2.97;2.30;;;26.30;51.80;;;;;;4920135;29;20131;-46
2022/06/19 00:12:18;;;;;;;2.67;1.50;;;26.20;52.00;;;;;;4915085;29;20068;-48
2022/06/19 00:14:45;;;;;;;2.35;1.73;;;26.30;51.90;;;;;;4918257;29;20055;-47
2022/06/19 00:17:15;;;;;;;2.42;1.83;;;26.10;51.70;;;;;;4917913;29;20068;-47
2022/06/19 00:19:43;;;;;;;2.08;1.80;;;26.10;51.70;;;;;;4919416;29;20044;-49
2022/06/19 00:22:14;;;;;;;1.70;1.60;;;26.10;51.90;;;;;;4914301;29;20037;-46
2022/06/19 00:24:40;;;;;;;2.55;1.70;;;26.00;51.90;;;;;;4918631;29;20032;-48
2022/06/19 00:27:09;;;;;;;3.60;1.65;;;26.00;52.00;;;;;;4917840;29;20510;-49
2022/06/19 00:29:36;;;;;;;2.60;2.00;;;25.90;52.00;;;;;;4912809;29;20046;-46
2022/06/19 00:32:07;;;;;;;2.53;1.67;;;25.90;51.90;;;;;;4919080;29;20058;-51
2022/06/19 00:34:36;;;;;;;1.65;1.50;;;25.90;52.10;;;;;;4906841;29;20408;-46
2022/06/19 00:37:06;;;;;;;5.78;1.80;;;25.80;51.80;;;;;;4919167;29;20103;-49
2022/06/19 00:39:39;;;;;;;3.03;1.98;;;25.80;51.80;;;;;;4912673;29;20076;-47
2022/06/19 00:42:11;;;;;;;3.25;1.88;;;25.80;51.70;;;;;;4905898;29;20039;-50
2022/06/19 00:44:38;;;;;;;;;;;25.80;51.90;;;;;;4899425;29;20136;-47
2022/06/19 00:47:19;;;;;;;2.17;1.60;;;25.80;50.70;;;;;;4905518;29;19990;-49
2022/06/19 00:49:58;;;;;;;2.17;1.50;;;25.70;51.60;;;;;;4909237;29;20048;-47
2022/06/19 00:52:31;;;;;;;2.05;1.40;;;25.70;51.80;;;;;;4915526;29;20097;-46
2022/06/19 00:55:13;;;;;;;2.97;1.80;;;25.60;51.80;;;;;;4896008;29;20108;-46
2022/06/19 00:57:50;;;;;;;1.67;1.58;;;25.60;52.10;;;;;;4908469;29;20047;-48
2022/06/19 01:00:26;;;;;;;6.13;2.03;;;25.50;52.20;;;;;;4916293;29;20044;-46
2022/06/19 01:03:00;;;;;;;3.10;2.10;;;25.50;52.00;;;;;;4913649;29;20040;-46
2022/06/19 01:05:32;;;;;;;2.45;1.67;;;25.40;52.10;;;;;;4912901;29;20088;-46
2022/06/19 01:08:00;;;;;;;2.35;1.58;;;25.40;52.10;;;;;;4911586;29;20052;-48
2022/06/19 01:10:27;;;;;;;2.13;1.60;;;25.30;52.10;;;;;;4908559;29;20444;-49
2022/06/19 01:12:56;;;;;;;2.30;1.63;;;25.30;52.30;;;;;;4912154;29;20048;-45
2022/06/19 01:15:24;;;;;;;1.70;1.50;;;25.20;52.50;;;;;;4915854;29;20103;-47
2022/06/19 01:18:02;;;;;;;3.42;1.67;;;25.20;52.40;;;;;;4916039;29;20448;-47
2022/06/19 01:20:31;;;;;;;1.67;1.20;;;25.20;52.80;;;;;;4910884;29;20041;-49
2022/06/19 01:23:21;;;;;;;2.83;1.65;;;25.10;52.50;;;;;;4915960;29;20100;-48
2022/06/19 01:25:52;;;;;;;5.30;1.90;;;25.10;52.90;;;;;;4905780;29;20040;-47
2022/06/19 01:31:20;;;;;;;2.97;1.73;;;24.90;52.90;;;;;;4915202;29;20103;-49
2022/06/19 01:33:56;;;;;;;2.78;1.77;;;24.80;53.00;;;;;;4912051;29;20048;-48
2022/06/19 01:36:25;;;;;;;3.08;1.58;;;24.80;53.00;;;;;;4915980;29;20048;-46
2022/06/19 01:38:54;;;;;;;2.03;1.60;;;24.70;53.00;;;;;;4915866;29;20048;-48
2022/06/19 01:41:30;;;;;;;2.23;1.30;;;24.60;53.00;;;;;;4916148;29;20091;-50
2022/06/19 01:44:01;;;;;;;3.20;1.55;;;24.50;53.10;;;;;;4906944;29;20327;-48
2022/06/19 01:46:33;;;;;;;5.68;1.77;;;24.50;53.20;;;;;;4915344;29;20045;-45
2022/06/19 01:49:02;;;;;;;3.33;1.73;;;24.40;53.40;;;;;;4914905;29;20128;-48
2022/06/19 01:51:33;;;;;;;2.13;1.10;;;24.30;53.20;;;;;;4914715;29;20051;-47
2022/06/19 01:54:07;;;;;;;3.58;1.27;;;24.30;53.00;;;;;;4910379;29;20051;-46
2022/06/19 01:56:34;;;;;;;2.97;1.38;;;24.20;53.10;;;;;;4915392;29;20107;-48
2022/06/19 01:59:10;;;;;;;4.22;1.05;;;24.10;52.80;;;;;;4914434;29;20044;-47
2022/06/19 02:01:45;;;;;;;4.07;1.38;;;24.00;52.80;;;;;;4908424;29;20119;-47
2022/06/19 02:04:12;;;;;;;3.30;1.42;;;23.90;52.50;;;;;;4912706;29;20119;-47
2022/06/19 02:06:47;;;;;;;5.07;1.20;;;23.70;52.50;;;;;;4915497;29;20443;-45
2022/06/19 02:09:17;;;;;;;2.92;1.25;;;23.60;52.70;;;;;;4915117;29;20504;-47
2022/06/19 02:11:44;;;;;;;3.78;1.40;;;23.50;52.60;;;;;;4908215;29;20704;-45
2022/06/19 02:14:12;;;;;;;5.82;1.92;;;23.40;52.40;;;;;;4914447;29;20500;-45
2022/06/19 02:16:45;;;;;;;3.80;2.10;;;23.20;52.50;;;;;;4908566;29;20681;-45
2022/06/19 02:19:13;;;;;;;4.50;1.40;;;23.10;52.60;;;;;;4909633;29;20079;-47
2022/06/19 02:21:43;;;;;;;3.70;1.30;;;23.00;52.60;;;;;;4909305;29;20040;-47
2022/06/19 02:24:21;;;;;;;5.18;1.60;;;22.80;52.80;;;;;;4914097;29;20512;-45
2022/06/19 02:26:50;;;;;;;5.15;1.40;;;22.70;53.10;;;;;;4914606;29;20522;-48
2022/06/19 02:29:21;;;;;;;6.93;1.45;;;22.60;53.00;;;;;;4912814;29;20051;-46
2022/06/19 02:31:54;;;;;;;4.72;1.52;;;22.60;53.20;;;;;;4910184;29;20044;-47
2022/06/19 02:34:24;;;;;;;7.03;1.73;;;22.50;52.80;;;;;;4914071;29;20087;-48
2022/06/19 02:37:04;;;;;;;13.05;2.28;;;22.40;52.70;;;;;;4914566;29;20393;-46
2022/06/19 02:40:09;;;;;;;3.42;1.88;;;22.30;53.00;;;;;;4906749;29;20043;-47
2022/06/19 02:42:47;;;;;;;4.32;1.73;;;22.20;52.60;;;;;;4902299;29;20469;-46
2022/06/19 02:45:16;;;;;;;3.75;1.42;;;22.20;52.70;;;;;;4913961;29;20067;-45
2022/06/19 02:47:48;;;;;;;5.13;1.80;;;22.00;52.60;;;;;;4914070;29;20052;-47
2022/06/19 02:50:19;;;;;;;5.35;2.15;;;21.90;52.70;;;;;;4911530;29;20533;-49
2022/06/19 02:52:52;;;;;;;5.73;2.17;;;21.90;53.00;;;;;;4911040;29;20107;-46
2022/06/19 02:55:22;;;;;;;6.25;1.77;;;21.80;53.00;;;;;;4912585;29;20411;-47
2022/06/19 02:57:56;;;;;;;9.55;2.17;;;21.70;52.90;;;;;;4910347;29;20063;-44
2022/06/19 03:00:27;;;;;;;7.63;1.55;;;21.60;52.70;;;;;;4911709;29;20504;-46
2022/06/19 03:03:07;;;;;;;8.98;2.20;;;21.40;52.80;;;;;;4914634;29;20051;-46
2022/06/19 03:05:34;;;;;;;6.32;3.00;;;21.30;52.80;;;;;;4909687;29;20036;-50
2022/06/19 03:08:01;;;;;;;8.00;2.00;;;21.20;52.80;;;;;;4912470;29;20043;-49
2022/06/19 03:10:31;;;;;;;9.48;2.15;;;21.10;52.90;;;;;;4912837;29;20404;-45
2022/06/19 03:13:00;;;;;;;5.82;1.83;;;21.00;53.20;;;;;;4912089;29;20067;-46
2022/06/19 03:15:27;;;;;;;8.73;2.80;;;20.90;53.20;;;;;;4912411;29;20051;-46
2022/06/19 03:17:54;;;;;;;7.68;2.05;;;20.80;53.30;;;;;;4910097;29;20040;-45
2022/06/19 03:20:25;;;;;;;11.23;2.40;;;20.70;53.40;;;;;;4913593;29;20862;-47
2022/06/19 03:22:55;;;;;;;4.97;1.75;;;20.60;53.60;;;;;;4913639;29;20126;-47
2022/06/19 03:25:26;;;;;;;8.82;2.33;;;20.60;53.60;;;;;;4911583;29;20043;-47
2022/06/19 03:27:57;;;;;;;3.05;1.33;;;20.40;53.50;;;;;;4912846;29;20480;-45
2022/06/19 03:30:24;;;;;;;5.65;1.48;;;20.40;53.70;;;;;;4897165;29;20104;-45
2022/06/19 03:32:56;;;;;;;7.45;2.75;;;20.40;53.60;;;;;;4900921;29;20104;-46
2022/06/19 03:35:27;;;;;;;7.75;1.83;;;20.30;54.10;;;;;;4911744;29;20040;-44
2022/06/19 03:37:53;;;;;;;7.55;1.65;;;20.20;53.40;;;;;;4910947;29;20040;-48
2022/06/19 03:40:20;;;;;;;4.18;1.50;;;20.10;53.30;;;;;;4913333;29;20052;-46
2022/06/19 03:42:49;;;;;;;8.27;1.50;;;20.10;53.20;;;;;;4896947;29;20040;-46
2022/06/19 03:45:16;;;;;;;6.57;1.77;;;20.00;53.00;;;;;;4910678;29;20052;-46
2022/06/19 03:47:45;;;;;;;7.93;1.80;;;20.00;52.90;;;;;;4913435;29;20158;-47
2022/06/19 03:50:17;;;;;;;6.40;1.30;;;19.90;53.00;;;;;;4921145;29;20182;-44
2022/06/19 03:52:47;;;;;;;5.00;1.33;;;19.90;53.10;;;;;;4912334;29;20472;-45
2022/06/19 03:55:13;;;;;;;3.75;1.30;;;19.80;52.80;;;;;;4904601;29;20088;-49
2022/06/19 03:57:40;;;;;;;8.50;1.85;;;19.80;52.50;;;;;;4913310;29;20043;-46
2022/06/19 04:00:12;;;;;;;5.88;1.50;;;19.80;52.30;;;;;;4899179;29;20420;-47
2022/06/19 04:02:43;;;;;;;5.32;1.40;;;19.80;52.10;;;;;;4897216;29;20079;-50
2022/06/19 04:05:12;;;;;;;5.28;1.38;;;19.70;51.60;;;;;;4909501;29;20044;-49
2022/06/19 04:07:47;;;;;;;5.75;2.38;;;19.70;51.30;;;;;;4913310;29;20040;-46
2022/06/19 04:10:24;;;;;;;9.05;2.20;;;19.70;50.90;;;;;;4914122;29;20503;-45
2022/06/19 04:12:53;;;;;;;4.55;1.15;;;19.60;50.90;;;;;;4907068;29;20063;-45
2022/06/19 04:15:25;;;;;;;12.27;2.63;;;19.60;50.70;;;;;;4910254;29;20040;-49
2022/06/19 04:17:51;;;;;;;5.45;1.35;;;19.60;50.60;;;;;;4913313;29;20044;-45
2022/06/19 04:20:21;;;;;;;3.45;1.33;;;19.60;50.50;;;;;;4913799;29;20419;-48
2022/06/19 04:22:49;;;;;;;6.63;1.63;;;19.70;50.00;;;;;;4892946;29;20049;-49
2022/06/19 04:25:21;;;;;;;6.40;1.30;;;19.70;49.70;;;;;;4915320;29;20044;-49
2022/06/19 04:27:47;;;;;;;6.80;1.60;;;19.70;49.40;;;;;;4916965;29;20044;-44
2022/06/19 04:30:22;;;;;;;;;;;19.70;49.10;;;;;;4904049;29;20048;-47
2022/06/19 04:32:50;;;;;;;5.22;1.45;;;19.80;48.80;;;;;;4912714;29;19970;-44
2022/06/19 04:35:21;;;;;;;5.65;2.08;;;19.70;49.00;;;;;;4916988;29;20045;-46
2022/06/19 04:37:47;;;;;;;4.05;1.13;;;19.70;48.80;;;;;;4916464;29;20044;-48
2022/06/19 04:40:14;;;;;;;4.57;1.05;;;19.70;48.60;;;;;;4916550;29;20041;-44
2022/06/19 04:42:44;;;;;;;5.55;1.55;;;19.80;48.40;;;;;;4911190;29;20112;-46
2022/06/19 04:45:13;;;;;;;5.43;1.30;;;19.80;48.00;;;;;;4916856;29;20499;-45
2022/06/19 04:47:43;;;;;;;4.50;1.58;;;19.70;47.50;;;;;;4897850;29;20053;-45
2022/06/19 04:50:10;;;;;;;4.25;1.50;;;19.70;47.30;;;;;;4904434;29;20051;-45
2022/06/19 04:52:42;;;;;;;5.57;1.30;;;19.70;47.00;;;;;;4913193;29;20055;-45
2022/06/19 04:55:11;;;;;;;2.92;1.05;;;19.70;46.90;;;;;;4916238;29;20052;-47
2022/06/19 04:57:38;;;;;;;4.93;1.30;;;19.80;46.90;;;;;;4916403;29;20064;-49
2022/06/19 05:00:07;;;;;;;4.72;1.15;;;19.70;47.10;;;;;;4912034;29;20107;-48
2022/06/19 05:02:37;;;;;;;3.75;1.00;;;19.70;47.00;;;;;;4914108;29;20099;-48
2022/06/19 05:05:05;;;;;;;8.05;1.67;;;19.80;46.80;;;;;;4913880;29;20068;-49
2022/06/19 05:07:33;;;;;;;5.82;1.42;;;19.80;47.10;;;;;;4915959;29;20039;-50
2022/06/19 05:10:00;;;;;;;5.90;1.40;;;19.80;47.00;;;;;;4914567;29;20044;-49
2022/06/19 05:12:34;;;;;;;7.50;1.65;;;19.90;46.70;;;;;;4915709;29;20123;-47
2022/06/19 05:15:04;;;;;;;6.05;1.30;;;19.90;46.40;;;;;;4915988;29;20496;-50
2022/06/19 05:17:33;;;;;;;5.13;1.50;;;20.00;46.70;;;;;;4914053;29;20060;-47
2022/06/19 05:20:02;;;;;;;4.90;1.30;;;20.00;46.70;;;;;;4915098;29;20048;-50
2022/06/19 05:22:34;;;;;;;5.55;1.42;;;20.00;46.70;;;;;;4916774;29;20526;-49
2022/06/19 05:25:04;;;;;;;7.88;1.52;;;20.00;46.60;;;;;;4916175;29;20040;-49
2022/06/19 05:27:31;;;;;;;5.63;1.98;;;20.10;47.10;;;;;;4910282;29;20123;-50
2022/06/19 05:29:59;;;;;;;4.25;1.50;;;20.10;46.90;;;;;;4910763;29;20052;-48
2022/06/19 05:32:28;;;;;;;6.53;1.95;;;20.20;46.70;;;;;;4915731;29;20040;-49
2022/06/19 05:34:57;;;;;;;3.75;1.30;;;20.20;46.90;;;;;;4903441;29;20048;-49
2022/06/19 05:37:25;;;;;;;5.47;1.33;;;20.30;46.90;;;;;;4912929;29;20052;-49
2022/06/19 05:39:56;;;;;;;6.95;2.38;;;20.40;47.10;;;;;;4914949;29;20095;-48
2022/06/19 05:42:27;;;;;;;;;;;20.50;47.20;;;;;;4918367;29;20128;-50
2022/06/19 05:44:54;;;;;;;4.35;0.98;;;20.60;46.90;;;;;;4914163;29;19923;-50
2022/06/19 05:47:20;;;;;;;7.22;1.58;;;20.70;46.90;;;;;;4908005;29;20055;-49
2022/06/19 05:49:50;;;;;;;6.60;1.13;;;20.80;46.80;;;;;;4914005;29;20058;-53
2022/06/19 05:52:22;;;;;;;9.13;1.20;;;20.90;46.90;;;;;;4913465;29;20322;-52
2022/06/19 05:54:53;;;;;;;7.43;1.67;;;20.90;46.60;;;;;;4894499;29;20052;-53
2022/06/19 05:57:20;;;;;;;6.38;1.15;;;21.00;46.30;;;;;;4913296;29;20579;-52
2022/06/19 05:59:51;;;;;;;4.93;1.35;;;21.10;46.40;;;;;;4913876;29;20048;-51
2022/06/19 06:02:23;;;;;;;8.40;3.30;;;21.10;46.20;;;;;;4914203;29;20052;-52
2022/06/19 06:04:52;;;;;;;3.03;1.35;;;21.20;46.40;;;;;;4907824;29;20040;-53
2022/06/19 06:07:19;;;;;;;4.95;1.42;;;21.20;46.20;;;;;;4907835;29;20127;-53
2022/06/19 06:09:49;;;;;;;4.93;1.20;;;21.20;46.40;;;;;;4911886;29;20140;-53
2022/06/19 06:12:22;;;;;;;6.18;1.88;;;21.20;46.20;;;;;;4913212;29;20135;-50
2022/06/19 06:14:48;;;;;;;2.72;1.25;;;21.30;46.50;;;;;;4912764;29;20055;-53
2022/06/19 06:17:16;;;;;;;4.32;1.15;;;21.40;46.70;;;;;;4907258;29;20330;-47
2022/06/19 06:19:43;;;;;;;7.85;1.65;;;21.50;46.70;;;;;;4898417;29;20054;-52
2022/06/19 06:22:10;;;;;;;5.60;1.20;;;21.50;46.60;;;;;;4913441;29;20039;-49
2022/06/19 06:24:39;;;;;;;4.18;1.08;;;21.60;46.40;;;;;;4922181;29;20046;-53
2022/06/19 06:27:06;;;;;;;5.90;1.73;;;21.70;46.30;;;;;;4902658;29;20048;-51
2022/06/19 06:29:35;;;;;;;4.93;1.52;;;21.70;46.10;;;;;;4912148;29;20119;-53
2022/06/19 06:32:02;;;;;;;5.20;1.60;;;21.80;45.90;;;;;;4923495;29;20668;-50
2022/06/19 06:34:30;;;;;;;8.20;1.67;;;21.80;45.50;;;;;;4920854;29;20063;-52
2022/06/19 06:36:56;;;;;;;10.02;2.30;;;21.80;45.30;;;;;;4912221;29;20052;-52
2022/06/19 06:39:23;;;;;;;4.15;1.48;;;21.90;45.90;;;;;;4920519;29;20071;-53
2022/06/19 06:41:50;;;;;;;6.43;1.40;;;21.90;45.70;;;;;;4932183;29;20071;-53
2022/06/19 06:44:17;;;;;;;5.07;1.52;;;21.90;45.70;;;;;;4913333;29;20075;-53
2022/06/19 06:46:43;;;;;;;5.95;1.90;;;22.00;46.60;;;;;;4924036;29;20036;-51
2022/06/19 06:49:10;;;;;;;4.38;1.67;;;22.00;45.90;;;;;;4909498;29;20051;-53
2022/06/19 06:51:37;;;;;;;6.25;1.65;;;22.10;45.50;;;;;;4911238;29;20040;-49
2022/06/19 06:54:04;;;;;;;5.28;1.95;;;22.20;45.60;;;;;;4910512;29;20048;-50
2022/06/19 06:56:33;;;;;;;5.15;1.65;;;22.20;45.70;;;;;;4920324;29;20529;-53
2022/06/19 06:59:00;;;;;;;10.35;1.83;;;22.30;46.00;;;;;;4911744;29;20132;-53
2022/06/19 07:01:31;;;;;;;9.63;1.80;;;22.30;45.60;;;;;;4909028;29;20448;-53
2022/06/19 07:03:59;;;;;;;20.27;2.20;;;22.20;45.30;;;;;;4875890;29;20084;-52
2022/06/19 07:06:28;;;;;;;7.72;1.50;;;22.20;45.00;;;;;;4912470;29;20070;-50
2022/06/19 07:08:55;;;;;;;6.13;1.33;;;22.10;44.80;;;;;;4909778;29;20052;-53
2022/06/19 07:11:36;;;;;;;4.95;1.35;;;22.00;44.80;;;;;;4909443;29;20054;-51
2022/06/19 07:14:04;;;;;;;6.15;2.42;;;21.90;44.50;;;;;;4909667;29;20048;-51
2022/06/19 07:16:31;;;;;;;5.55;1.23;;;21.80;44.80;;;;;;4911485;29;20047;-53
2022/06/19 07:18:58;;;;;;;5.60;0.98;;;21.80;45.30;;;;;;4906867;29;20044;-51
2022/06/19 07:21:25;;;;;;;8.60;2.20;;;21.70;45.00;;;;;;4909629;29;20067;-50
2022/06/19 07:23:51;;;;;;;4.90;1.30;;;21.70;45.20;;;;;;4909715;29;20570;-53
2022/06/19 07:26:20;;;;;;;5.50;2.35;;;21.70;45.50;;;;;;4913714;29;20044;-49
2022/06/19 07:28:47;;;;;;;8.45;1.45;;;21.60;44.80;;;;;;4918998;29;20044;-52
2022/06/19 07:31:22;;;;;;;5.63;1.40;;;21.60;45.00;;;;;;4910649;29;20456;-50
2022/06/19 07:33:49;;;;;;;5.25;1.20;;;21.60;44.50;;;;;;4901830;29;20427;-46
2022/06/19 07:36:19;;;;;;;3.80;1.30;;;21.50;44.70;;;;;;4913095;29;20103;-46
2022/06/19 07:38:49;;;;;;;5.22;1.70;;;21.50;44.60;;;;;;4913977;29;20076;-46
2022/06/19 07:41:15;;;;;;;4.70;1.10;;;21.60;44.60;;;;;;4896019;29;20059;-46
2022/06/19 07:43:45;;;;;;;5.72;1.85;;;21.50;44.80;;;;;;4909436;29;20036;-48
2022/06/19 07:46:13;;;;;;;4.38;1.35;;;21.60;44.80;;;;;;4909286;29;20136;-46
2022/06/19 07:51:40;;;;;;;5.55;1.27;;;21.70;45.10;;;;;;4852316;29;20098;-49
2022/06/19 07:54:07;;;;;;;4.85;0.98;;;21.70;45.00;;;;;;4908138;29;20099;-48
2022/06/19 07:56:34;;;;;;;5.50;1.52;;;21.80;44.50;;;;;;4912930;29;20037;-49
2022/06/19 07:59:04;;;;;;;4.40;1.30;;;21.90;44.30;;;;;;4911420;29;20605;-48
2022/06/19 08:01:31;;;;;;;4.50;1.02;;;22.00;44.80;;;;;;4978454;23;20052;-44
2022/06/19 08:04:18;;;;;;;6.75;1.17;;;22.00;44.40;;;;;;4913028;29;20051;-45
2022/06/19 08:06:44;;;;;;;7.40;1.67;;;22.10;44.20;;;;;;4917079;29;20052;-45
2022/06/19 08:09:11;;;;;;;4.53;1.10;;;22.30;43.90;;;;;;4914150;29;20064;-45
2022/06/19 08:11:38;;;;;;;4.70;1.48;;;22.30;44.40;;;;;;4912086;29;20456;-49
2022/06/19 08:14:05;;;;;;;3.97;0.98;;;22.40;43.30;;;;;;4919865;29;20151;-44
2022/06/19 08:16:32;;;;;;;5.13;1.00;;;22.50;43.70;;;;;;4915225;29;20450;-45
2022/06/19 08:18:59;;;;;;;2.72;1.27;;;22.60;43.40;;;;;;4912334;29;20048;-44
2022/06/19 08:21:26;;;;;;;14.93;2.35;;;22.60;43.40;;;;;;4908008;29;20411;-44
2022/06/19 08:23:53;;;;;;;6.18;1.33;;;22.60;43.20;;;;;;4909255;29;20063;-46
2022/06/19 08:26:22;;;;;;;3.30;1.00;;;22.70;43.00;;;;;;4914609;29;20049;-45
2022/06/19 08:28:58;;;;;;;4.40;1.35;;;22.80;42.80;;;;;;4913061;29;20465;-44
2022/06/19 08:31:25;;;;;;;7.20;1.38;;;22.80;43.00;;;;;;4916091;29;20048;-45
2022/06/19 08:33:52;;;;;;;3.22;1.20;;;22.80;42.80;;;;;;4913399;29;20040;-46
2022/06/19 08:36:19;;;;;;;4.40;0.88;;;22.90;42.70;;;;;;4906108;29;20500;-43
2022/06/19 08:38:52;;;;;;;3.30;0.80;;;23.00;42.50;;;;;;4912787;29;20051;-46
2022/06/19 08:41:39;;;;;;;3.20;1.27;;;23.00;42.20;;;;;;4917042;29;20099;-47
2022/06/19 08:44:15;;;;;;;5.88;1.50;;;23.00;41.50;;;;;;4912953;29;20052;-44
2022/06/19 08:47:02;;;;;;;3.95;1.17;;;23.00;41.30;;;;;;4916059;29;20100;-44
2022/06/19 08:50:08;;;;;;;5.10;1.33;;;23.00;41.40;;;;;;4913663;29;20052;-45
2022/06/19 08:52:51;;;;;;;3.28;1.08;;;22.90;41.70;;;;;;4884002;29;20068;-43
2022/06/19 08:55:35;;;;;;;3.35;1.17;;;22.80;41.80;;;;;;4893179;29;20393;-45
2022/06/19 08:58:09;;;;;;;3.88;1.08;;;22.80;42.60;;;;;;4916272;29;20055;-46
2022/06/19 09:00:51;;;;;;;5.50;1.13;;;22.70;42.50;;;;;;4924182;29;20040;-45
2022/06/19 09:06:54;;;;;;;7.00;1.60;;;22.70;42.80;;;;;;4914259;29;20048;-45
2022/06/19 09:09:39;;;;;;;2.40;1.27;;;22.70;42.70;;;;;;4911811;29;20115;-44
2022/06/19 09:12:15;;;;;;;5.30;1.00;;;22.80;42.60;;;;;;4910846;29;20055;-43
2022/06/19 09:14:57;;;;;;;5.55;1.00;;;22.90;42.10;;;;;;4910931;29;20416;-45
2022/06/19 09:17:51;;;;;;;2.47;1.20;;;23.00;42.10;;;;;;4907293;29;20115;-46
2022/06/19 09:20:32;;;;;;;5.32;1.17;;;23.00;42.30;;;;;;4921773;29;20416;-45
2022/06/19 09:23:17;;;;;;;3.67;1.27;;;23.00;41.90;;;;;;4917284;29;20051;-47
2022/06/19 09:26:22;;;;;;;8.63;1.52;;;23.00;41.60;;;;;;4903354;29;20377;-47
2022/06/19 09:29:11;;;;;;;4.15;1.15;;;23.00;41.50;;;;;;4897212;29;20061;-45
2022/06/19 09:31:48;;;;;;;5.15;1.25;;;22.90;42.10;;;;;;4915530;29;20032;-48
2022/06/19 09:34:28;;;;;;;3.35;1.30;;;22.90;42.40;;;;;;4911592;29;20048;-46
2022/06/19 09:37:07;;;;;;;3.08;1.05;;;22.90;42.80;;;;;;4914652;29;20098;-45
2022/06/19 09:39:47;;;;;;;4.82;1.30;;;22.90;43.10;;;;;;4913277;29;20099;-46
2022/06/19 09:42:17;;;;;;;2.60;0.77;;;22.90;43.30;;;;;;4913836;29;20459;-46
2022/06/19 09:44:58;;;;;;;5.20;1.48;;;22.90;43.30;;;;;;4923772;29;20059;-46
2022/06/19 09:47:32;;;;;;;2.53;0.80;;;22.90;44.60;;;;;;4906490;29;20044;-45
2022/06/19 09:50:44;;;;;;;4.78;1.17;;;23.00;45.30;;;;;;4908648;29;20546;-49
2022/06/19 09:53:41;;;;;;;4.40;1.73;;;23.00;44.30;;;;;;4923172;29;20047;-47
2022/06/19 09:56:35;;;;;;;7.63;1.38;;;23.10;43.90;;;;;;4914085;29;20048;-47
2022/06/19 09:59:06;;;;;;;4.63;1.05;;;23.10;44.40;;;;;;4909977;29;20099;-48
2022/06/19 10:01:33;;;;;;;4.78;1.40;;;23.00;44.30;;;;;;4904732;29;20043;-46
2022/06/19 10:04:11;;;;;;;5.95;1.38;;;23.00;44.20;;;;;;4908960;29;20503;-43
2022/06/19 10:06:44;;;;;;;3.70;2.00;;;23.10;44.20;;;;;;4913171;29;20036;-47
2022/06/19 10:09:28;;;;;;;6.65;1.15;;;23.10;44.70;;;;;;4912231;29;20700;-49
2022/06/19 10:11:59;;;;;;;5.35;1.48;;;23.10;43.80;;;;;;4912789;29;20040;-46
2022/06/19 10:14:35;;;;;;;3.38;1.27;;;23.10;43.80;;;;;;4910379;29;20455;-47
2022/06/19 10:17:18;;;;;;;5.40;1.20;;;23.10;43.80;;;;;;4911445;29;20040;-47
2022/06/19 10:19:47;;;;;;;6.32;1.67;;;23.10;43.70;;;;;;4914902;29;20051;-46
2022/06/19 10:22:34;;;;;;;4.60;1.25;;;23.10;43.80;;;;;;4915523;29;20040;-44
2022/06/19 10:25:19;;;;;;;5.75;1.20;;;23.00;43.70;;;;;;4911658;29;20919;-47
2022/06/19 10:28:20;;;;;;;4.75;1.45;;;23.00;44.60;;;;;;4909724;29;20036;-48
2022/06/19 10:30:46;;;;;;;4.05;0.82;;;22.90;44.40;;;;;;4911866;29;20107;-44
2022/06/19 10:34:01;;;;;;;4.15;1.55;;;23.00;44.50;;;;;;4908469;29;20578;-45
2022/06/19 10:36:31;;;;;;;3.50;1.55;;;23.00;44.60;;;;;;4887869;29;20112;-44
2022/06/19 10:39:42;;;;;;;3.15;1.20;;;23.20;44.40;;;;;;4907854;29;20076;-49
2022/06/19 10:42:15;;;;;;;6.97;1.83;;;23.30;44.00;;;;;;4911134;29;20055;-47
2022/06/19 10:45:05;;;;;;;3.20;1.02;;;23.50;43.60;;;;;;4912135;29;20048;-45
2022/06/19 10:47:54;;;;;;;3.60;1.27;;;23.60;43.30;;;;;;4907185;29;20359;-44
2022/06/19 10:50:42;;;;;;;5.90;1.38;;;23.70;43.70;;;;;;4911666;29;20040;-48
2022/06/19 10:53:09;;;;;;;6.10;1.20;;;23.90;43.60;;;;;;4909723;29;20606;-48
2022/06/19 10:55:44;;;;;;;5.57;1.73;;;24.00;43.10;;;;;;4919200;29;20070;-46
2022/06/19 10:58:16;;;;;;;6.50;1.30;;;24.20;42.70;;;;;;4908209;29;20044;-47
2022/06/19 11:00:45;;;;;;;8.23;1.40;;;24.30;43.10;;;;;;4925696;29;20099;-48
2022/06/19 11:06:27;;;;;;;4.13;1.77;;;24.50;42.80;;;;;;4901861;29;20048;-47
2022/06/19 11:08:59;;;;;;;5.65;1.80;;;24.70;41.70;;;;;;4907068;29;20111;-46
2022/06/19 11:11:28;;;;;;;4.13;1.48;;;24.80;41.60;;;;;;4912770;29;20052;-48
2022/06/19 11:14:11;;;;;;;4.57;1.40;;;24.80;41.50;;;;;;4908148;29;20056;-46
2022/06/19 11:16:57;;;;;;;5.63;1.63;;;24.90;41.90;;;;;;4912670;29;20076;-48
2022/06/19 11:19:38;;;;;;;4.22;1.23;;;24.90;41.50;;;;;;4910381;29;20036;-50
2022/06/19 11:22:31;;;;;;;6.55;1.58;;;24.80;41.60;;;;;;4913066;29;20040;-47
2022/06/19 11:25:19;;;;;;;5.97;2.15;;;24.70;41.40;;;;;;4903473;29;20162;-48
2022/06/19 11:28:02;;;;;;;3.95;1.15;;;24.60;41.60;;;;;;4905582;29;20040;-45
2022/06/19 11:30:33;;;;;;;5.80;1.67;;;24.60;41.90;;;;;;4923597;29;20079;-44
2022/06/19 11:33:02;;;;;;;3.15;1.70;;;24.60;42.40;;;;;;4908573;29;20056;-45
2022/06/19 11:35:38;;;;;;;5.70;1.60;;;24.60;42.00;;;;;;4911180;29;20128;-48
2022/06/19 11:38:05;;;;;;;8.82;1.75;;;24.60;42.20;;;;;;4909202;29;20052;-45
2022/06/19 11:40:37;;;;;;;4.75;1.70;;;24.60;42.10;;;;;;4924058;29;20044;-44
2022/06/19 11:43:05;;;;;;;4.68;2.20;;;24.70;42.60;;;;;;4921025;29;20076;-44
2022/06/19 11:45:36;;;;;;;3.92;1.38;;;24.70;42.40;;;;;;4909836;29;20032;-45
2022/06/19 11:48:13;;;;;;;6.35;1.48;;;24.80;42.20;;;;;;4911043;29;20056;-45
2022/06/19 11:50:50;;;;;;;5.28;1.60;;;24.80;42.60;;;;;;4924961;29;20052;-44
2022/06/19 11:53:28;;;;;;;3.78;1.60;;;24.90;42.10;;;;;;4913907;29;20483;-45
2022/06/19 11:56:21;;;;;;;5.95;2.25;;;25.00;41.80;;;;;;4914187;29;20040;-48
2022/06/19 11:59:04;;;;;;;4.03;1.90;;;25.10;42.30;;;;;;4904708;29;20052;-49
2022/06/19 12:01:37;;;;;;;4.70;1.65;;;25.10;42.30;;;;;;4910537;29;20460;-49
2022/06/19 12:04:17;;;;;;;6.40;1.88;;;25.10;42.60;;;;;;4909202;29;20032;-45
2022/06/19 12:06:50;;;;;;;3.97;1.55;;;25.10;42.60;;;;;;4912180;29;20119;-45
2022/06/19 12:09:25;;;;;;;4.78;1.75;;;25.10;42.50;;;;;;4919660;29;20047;-46
2022/06/19 12:12:13;;;;;;;4.70;2.13;;;25.20;42.60;;;;;;4915800;29;20055;-45
2022/06/19 12:14:46;;;;;;;4.93;1.38;;;25.30;42.30;;;;;;4911730;29;20084;-47
2022/06/19 12:17:18;;;;;;;3.42;1.50;;;25.40;42.40;;;;;;4911465;29;20040;-45
2022/06/19 12:19:58;;;;;;;5.07;2.08;;;25.50;42.50;;;;;;4909657;29;20041;-49
2022/06/19 12:22:48;;;;;;;6.43;1.92;;;25.60;42.60;;;;;;4912784;29;20040;-45
2022/06/19 12:25:33;;;;;;;4.53;1.80;;;25.70;42.30;;;;;;4913856;29;20043;-46
2022/06/19 12:28:09;;;;;;;6.85;2.20;;;25.80;42.10;;;;;;4909505;29;20044;-45
2022/06/19 12:30:51;;;;;;;4.88;1.90;;;25.90;41.80;;;;;;4913826;29;20049;-48
2022/06/19 12:33:31;;;;;;;8.70;2.40;;;26.00;41.90;;;;;;4909173;29;20040;-46
2022/06/19 12:35:59;;;;;;;3.90;2.20;;;26.10;42.10;;;;;;4913931;29;20369;-46
2022/06/19 12:38:32;;;;;;;3.80;1.48;;;26.10;41.90;;;;;;4914418;29;20108;-48
2022/06/19 12:41:19;;;;;;;6.88;2.22;;;26.10;42.30;;;;;;4913745;29;20040;-45
2022/06/19 12:44:00;;;;;;;4.38;2.00;;;26.20;42.50;;;;;;4910615;29;20044;-46
2022/06/19 12:46:49;;;;;;;8.15;2.65;;;26.30;42.30;;;;;;4930575;29;20043;-45
2022/06/19 12:49:49;;;;;;;7.25;2.00;;;26.50;42.10;;;;;;4905678;29;20072;-49
2022/06/19 12:52:31;;;;;;;9.32;2.38;;;26.60;41.90;;;;;;4914756;29;20052;-45
2022/06/19 12:54:57;;;;;;;3.75;2.00;;;26.60;42.00;;;;;;4916194;29;20056;-45
2022/06/19 12:57:52;;;;;;;7.75;2.78;;;26.70;42.10;;;;;;4914015;29;20116;-46
2022/06/19 13:00:32;;;;;;;6.40;2.40;;;26.70;42.10;;;;;;4912930;29;20051;-50
2022/06/19 13:03:38;;;;;;;7.68;2.70;;;26.80;41.90;;;;;;4918879;29;20088;-47
2022/06/19 13:06:14;;;;;;;4.35;2.10;;;26.90;41.40;;;;;;4849759;29;20130;-47
2022/06/19 13:09:04;;;;;;;8.73;2.75;;;26.90;41.90;;;;;;4912864;29;20080;-46
2022/06/19 13:12:06;;;;;;;5.50;1.92;;;27.00;41.60;;;;;;4915268;29;20415;-47
2022/06/19 13:14:53;;;;;;;3.58;1.73;;;27.10;42.00;;;;;;4913672;29;20072;-45
2022/06/19 13:17:28;;;;;;;3.70;1.70;;;27.30;41.40;;;;;;4913570;29;20039;-45
2022/06/19 13:20:23;;;;;;;4.95;1.50;;;27.30;41.20;;;;;;4915976;29;20048;-48
2022/06/19 13:23:14;;;;;;;4.70;2.47;;;27.40;41.20;;;;;;4913479;29;20044;-45
2022/06/19 13:29:19;;;;;;;4.13;2.03;;;27.60;40.70;;;;;;4908957;29;20040;-45
2022/06/19 13:31:49;;;;;;;;;;;27.80;41.50;;;;;;4905270;29;20044;-48
2022/06/19 13:34:54;;;;;;;3.10;1.65;;;28.00;41.60;;;;;;4908456;29;19987;-47
2022/06/19 13:37:35;;;;;;;4.35;2.42;;;28.50;41.50;;;;;;4906980;29;20040;-48
2022/06/19 13:40:11;;;;;;;3.95;1.65;;;29.10;41.20;;;;;;4911743;29;20047;-45